OK41 weather

Police Civic Center Heliport
Tulsa, Oklahoma, United States

Public forecast

Using degrees Fahrenheit for public forecast. Weather courtesy of forecast.io.

METAR (pilot weather report)

Closest report is Tulsa International Airport, 6.0 nm (11.2 km) ENE. Retrieved 2019/04/24 09:53 UTC (10 minutes ago):

KTUL 240953Z 34003KT 6SM -RA BR BKN009 OVC048 13/13 A2992 RMK AO2 SLP128 P0003 T01330128

TAF (pilot weather forecast)

Closest forecast is Tulsa International Airport, 6.0 nm (11.2 km) ENE. Retrieved 2019/04/24 06:22 UTC (4 hours ago):

TAF KTUL 240520Z 2406/2506 35008KT P6SM OVC007 FM240900 34004KT P6SM OVC004 FM241800 34003KT P6SM OVC015 FM242100 35005KT P6SM BKN050 FM250300 04003KT P6SM BKN250